EGPI

Islay Airport

Port Ellen, United Kingdom
METAR EGPI 231620Z 14023KT 100V160 9999 OVC024 05/00 Q1016
Observed Flight Rules
Feb-23 @ 16:20 UTC (21 minutes ago) Marginal Visual Flight Rules
Wind Visibility Clouds
140° at 23 knots 10,000+ meters
  • Overcast at 2,400' AGL
Temperatures Readings
Current 5°C / 41°F
Dewpoint 0°C / 32°F
Humidity 70%
Altimeter 30" Hg
Pressure 1016 hPa
Elevation 18
METAR EGPI 231620Z 14023KT 100V160 9999 OVC024 05/00 Q1016
Observed Flight Rules
Feb-23 @ 16:20 UTC
(21 minutes ago)
MVFR
Wind Visibility
140° at 23 knots 10,000+ meters
Clouds
  • Overcast at 2,400' AGL
Temperature Dewpoint
5°C / 41°F 0°C / 32°F
Humidity Altimeter Pressure
70% 30" Hg 1016 hPa